sensor_id;sensor_type;location;lat;lon;timestamp;temperature;humidity
29431;DHT22;16404;49.902;10.074;2023-09-19T00:02:16;20.30;62.60
29431;DHT22;16404;49.902;10.074;2023-09-19T00:05:00;20.20;62.70
29431;DHT22;16404;49.902;10.074;2023-09-19T00:07:50;20.20;62.60
29431;DHT22;16404;49.902;10.074;2023-09-19T00:10:35;20.20;62.50
29431;DHT22;16404;49.902;10.074;2023-09-19T00:13:20;20.20;62.70
29431;DHT22;16404;49.902;10.074;2023-09-19T00:16:11;20.20;62.80
29431;DHT22;16404;49.902;10.074;2023-09-19T00:18:56;20.20;62.70
29431;DHT22;16404;49.902;10.074;2023-09-19T00:21:40;20.20;62.80
29431;DHT22;16404;49.902;10.074;2023-09-19T00:24:25;20.20;62.80
29431;DHT22;16404;49.902;10.074;2023-09-19T00:27:12;20.20;62.60
29431;DHT22;16404;49.902;10.074;2023-09-19T00:29:56;20.30;62.10
29431;DHT22;16404;49.902;10.074;2023-09-19T00:32:41;20.30;62.10
29431;DHT22;16404;49.902;10.074;2023-09-19T00:35:26;20.20;62.20
29431;DHT22;16404;49.902;10.074;2023-09-19T00:38:11;20.20;62.50
29431;DHT22;16404;49.902;10.074;2023-09-19T00:40:56;20.20;63.00
29431;DHT22;16404;49.902;10.074;2023-09-19T00:43:44;20.20;62.90
29431;DHT22;16404;49.902;10.074;2023-09-19T00:46:28;20.20;62.90
29431;DHT22;16404;49.902;10.074;2023-09-19T00:49:13;20.10;62.90
29431;DHT22;16404;49.902;10.074;2023-09-19T00:51:58;20.20;62.70
29431;DHT22;16404;49.902;10.074;2023-09-19T00:54:44;20.20;62.70
29431;DHT22;16404;49.902;10.074;2023-09-19T00:57:29;20.10;63.10
29431;DHT22;16404;49.902;10.074;2023-09-19T01:00:17;20.00;63.50
29431;DHT22;16404;49.902;10.074;2023-09-19T01:03:04;19.90;63.80
29431;DHT22;16404;49.902;10.074;2023-09-19T01:05:51;20.00;64.00
29431;DHT22;16404;49.902;10.074;2023-09-19T01:08:37;19.90;64.00
29431;DHT22;16404;49.902;10.074;2023-09-19T01:11:42;19.90;64.10
29431;DHT22;16404;49.902;10.074;2023-09-19T01:14:59;19.90;64.40
29431;DHT22;16404;49.902;10.074;2023-09-19T01:17:57;19.90;64.50
29431;DHT22;16404;49.902;10.074;2023-09-19T01:29:46;19.80;64.90
29431;DHT22;16404;49.902;10.074;2023-09-19T01:32:31;19.80;64.70
29431;DHT22;16404;49.902;10.074;2023-09-19T01:35:16;19.80;65.00
29431;DHT22;16404;49.902;10.074;2023-09-19T01:38:02;19.80;64.80
29431;DHT22;16404;49.902;10.074;2023-09-19T01:41:00;19.70;64.80
29431;DHT22;16404;49.902;10.074;2023-09-19T01:43:49;19.70;65.20
29431;DHT22;16404;49.902;10.074;2023-09-19T01:46:36;19.60;65.30
29431;DHT22;16404;49.902;10.074;2023-09-19T01:49:45;19.60;65.70
29431;DHT22;16404;49.902;10.074;2023-09-19T01:52:38;19.50;66.10
29431;DHT22;16404;49.902;10.074;2023-09-19T01:55:28;19.50;66.40
29431;DHT22;16404;49.902;10.074;2023-09-19T02:01:04;19.40;66.60
29431;DHT22;16404;49.902;10.074;2023-09-19T02:03:50;19.40;66.90
29431;DHT22;16404;49.902;10.074;2023-09-19T02:06:35;19.40;66.90
29431;DHT22;16404;49.902;10.074;2023-09-19T02:09:19;19.40;67.00
29431;DHT22;16404;49.902;10.074;2023-09-19T02:12:04;19.40;67.20
29431;DHT22;16404;49.902;10.074;2023-09-19T02:14:49;19.40;68.00
29431;DHT22;16404;49.902;10.074;2023-09-19T02:17:34;19.30;67.30
29431;DHT22;16404;49.902;10.074;2023-09-19T02:20:19;19.30;67.50
29431;DHT22;16404;49.902;10.074;2023-09-19T02:23:04;19.30;67.70
29431;DHT22;16404;49.902;10.074;2023-09-19T02:25:59;19.30;67.80
29431;DHT22;16404;49.902;10.074;2023-09-19T02:28:44;19.30;67.80
29431;DHT22;16404;49.902;10.074;2023-09-19T02:31:30;19.40;67.70
29431;DHT22;16404;49.902;10.074;2023-09-19T02:34:15;19.40;67.70
29431;DHT22;16404;49.902;10.074;2023-09-19T02:37:07;19.40;67.70
29431;DHT22;16404;49.902;10.074;2023-09-19T02:39:55;19.40;68.00
29431;DHT22;16404;49.902;10.074;2023-09-19T02:42:42;19.50;67.90
29431;DHT22;16404;49.902;10.074;2023-09-19T02:45:27;19.60;67.90
29431;DHT22;16404;49.902;10.074;2023-09-19T02:48:11;19.60;67.90
29431;DHT22;16404;49.902;10.074;2023-09-19T02:50:56;19.70;67.70
29431;DHT22;16404;49.902;10.074;2023-09-19T02:53:40;19.70;67.80
29431;DHT22;16404;49.902;10.074;2023-09-19T02:56:27;19.70;67.90
29431;DHT22;16404;49.902;10.074;2023-09-19T02:59:12;19.70;67.90
29431;DHT22;16404;49.902;10.074;2023-09-19T03:01:56;19.70;67.90
29431;DHT22;16404;49.902;10.074;2023-09-19T03:04:41;19.80;68.00
29431;DHT22;16404;49.902;10.074;2023-09-19T03:07:26;19.80;68.00
29431;DHT22;16404;49.902;10.074;2023-09-19T03:10:11;19.80;68.00
29431;DHT22;16404;49.902;10.074;2023-09-19T03:12:55;19.80;68.10
29431;DHT22;16404;49.902;10.074;2023-09-19T03:15:43;19.80;68.30
29431;DHT22;16404;49.902;10.074;2023-09-19T03:18:37;19.90;68.50
29431;DHT22;16404;49.902;10.074;2023-09-19T03:21:22;19.90;68.40
29431;DHT22;16404;49.902;10.074;2023-09-19T03:24:07;19.90;68.40
29431;DHT22;16404;49.902;10.074;2023-09-19T03:26:51;19.90;68.60
29431;DHT22;16404;49.902;10.074;2023-09-19T03:29:36;19.90;68.70
29431;DHT22;16404;49.902;10.074;2023-09-19T03:32:22;19.90;68.80
29431;DHT22;16404;49.902;10.074;2023-09-19T03:35:07;19.90;68.90
29431;DHT22;16404;49.902;10.074;2023-09-19T03:37:51;19.90;68.90
29431;DHT22;16404;49.902;10.074;2023-09-19T03:40:37;19.90;69.20
29431;DHT22;16404;49.902;10.074;2023-09-19T03:43:22;19.90;69.20
29431;DHT22;16404;49.902;10.074;2023-09-19T03:46:06;19.90;69.30
29431;DHT22;16404;49.902;10.074;2023-09-19T03:48:52;19.90;69.40
29431;DHT22;16404;49.902;10.074;2023-09-19T03:51:38;19.90;69.70
29431;DHT22;16404;49.902;10.074;2023-09-19T03:54:25;19.90;69.90
29431;DHT22;16404;49.902;10.074;2023-09-19T03:57:10;19.80;70.00
29431;DHT22;16404;49.902;10.074;2023-09-19T03:59:56;19.80;70.00
29431;DHT22;16404;49.902;10.074;2023-09-19T04:02:41;19.90;70.10
29431;DHT22;16404;49.902;10.074;2023-09-19T04:05:26;19.90;70.10
29431;DHT22;16404;49.902;10.074;2023-09-19T04:08:11;20.00;70.10
29431;DHT22;16404;49.902;10.074;2023-09-19T04:10:55;20.00;69.90
29431;DHT22;16404;49.902;10.074;2023-09-19T04:13:40;20.10;69.80
29431;DHT22;16404;49.902;10.074;2023-09-19T04:16:25;20.10;69.80
29431;DHT22;16404;49.902;10.074;2023-09-19T04:19:10;20.10;69.80
29431;DHT22;16404;49.902;10.074;2023-09-19T04:21:54;20.10;69.90
29431;DHT22;16404;49.902;10.074;2023-09-19T04:24:39;20.10;69.70
29431;DHT22;16404;49.902;10.074;2023-09-19T04:27:23;20.10;69.40
29431;DHT22;16404;49.902;10.074;2023-09-19T04:30:08;20.20;69.20
29431;DHT22;16404;49.902;10.074;2023-09-19T04:32:55;20.20;69.20
29431;DHT22;16404;49.902;10.074;2023-09-19T04:35:40;20.20;69.20
29431;DHT22;16404;49.902;10.074;2023-09-19T04:38:26;20.20;69.10
29431;DHT22;16404;49.902;10.074;2023-09-19T04:41:13;20.10;69.00
29431;DHT22;16404;49.902;10.074;2023-09-19T04:44:00;20.10;69.20
29431;DHT22;16404;49.902;10.074;2023-09-19T04:46:44;20.10;69.20
29431;DHT22;16404;49.902;10.074;2023-09-19T04:49:30;20.10;68.90
29431;DHT22;16404;49.902;10.074;2023-09-19T04:52:14;20.10;68.90
29431;DHT22;16404;49.902;10.074;2023-09-19T04:55:00;20.10;69.10
29431;DHT22;16404;49.902;10.074;2023-09-19T04:57:49;20.00;69.20
29431;DHT22;16404;49.902;10.074;2023-09-19T05:00:34;20.00;69.10
29431;DHT22;16404;49.902;10.074;2023-09-19T05:03:19;20.00;69.70
29431;DHT22;16404;49.902;10.074;2023-09-19T05:06:04;20.10;68.90
29431;DHT22;16404;49.902;10.074;2023-09-19T05:08:50;20.10;68.80
29431;DHT22;16404;49.902;10.074;2023-09-19T05:11:35;20.10;68.50
29431;DHT22;16404;49.902;10.074;2023-09-19T05:14:21;20.10;68.20
29431;DHT22;16404;49.902;10.074;2023-09-19T05:17:06;20.00;68.10
29431;DHT22;16404;49.902;10.074;2023-09-19T05:19:52;20.00;68.40
29431;DHT22;16404;49.902;10.074;2023-09-19T05:22:36;19.90;68.50
29431;DHT22;16404;49.902;10.074;2023-09-19T05:25:24;20.00;68.70
29431;DHT22;16404;49.902;10.074;2023-09-19T05:28:10;20.00;68.60
29431;DHT22;16404;49.902;10.074;2023-09-19T05:31:02;20.00;68.70
29431;DHT22;16404;49.902;10.074;2023-09-19T05:33:47;19.90;68.70
29431;DHT22;16404;49.902;10.074;2023-09-19T05:36:31;20.00;68.80
29431;DHT22;16404;49.902;10.074;2023-09-19T05:39:16;20.00;69.00
29431;DHT22;16404;49.902;10.074;2023-09-19T05:42:01;19.90;69.00
29431;DHT22;16404;49.902;10.074;2023-09-19T05:44:45;19.90;69.00
29431;DHT22;16404;49.902;10.074;2023-09-19T05:47:30;19.90;69.00
29431;DHT22;16404;49.902;10.074;2023-09-19T05:50:15;20.00;69.00
29431;DHT22;16404;49.902;10.074;2023-09-19T05:53:00;19.90;68.70
29431;DHT22;16404;49.902;10.074;2023-09-19T05:55:45;20.00;68.70
29431;DHT22;16404;49.902;10.074;2023-09-19T05:58:29;20.00;68.50
29431;DHT22;16404;49.902;10.074;2023-09-19T06:01:14;19.90;68.30
29431;DHT22;16404;49.902;10.074;2023-09-19T06:03:59;19.90;68.10
29431;DHT22;16404;49.902;10.074;2023-09-19T06:06:45;20.10;67.90
29431;DHT22;16404;49.902;10.074;2023-09-19T06:09:31;20.10;67.40
29431;DHT22;16404;49.902;10.074;2023-09-19T06:12:16;20.10;67.30
29431;DHT22;16404;49.902;10.074;2023-09-19T06:15:01;20.10;67.20
29431;DHT22;16404;49.902;10.074;2023-09-19T06:17:49;20.20;66.90
29431;DHT22;16404;49.902;10.074;2023-09-19T06:20:34;20.20;66.40
29431;DHT22;16404;49.902;10.074;2023-09-19T06:23:21;20.30;66.40
29431;DHT22;16404;49.902;10.074;2023-09-19T06:26:05;20.40;66.50
29431;DHT22;16404;49.902;10.074;2023-09-19T06:28:50;20.50;66.30
29431;DHT22;16404;49.902;10.074;2023-09-19T06:31:35;20.50;66.20
29431;DHT22;16404;49.902;10.074;2023-09-19T06:34:20;20.50;66.00
29431;DHT22;16404;49.902;10.074;2023-09-19T06:37:04;20.70;65.80
29431;DHT22;16404;49.902;10.074;2023-09-19T06:39:52;20.80;65.40
29431;DHT22;16404;49.902;10.074;2023-09-19T06:42:37;20.80;65.00
29431;DHT22;16404;49.902;10.074;2023-09-19T06:45:22;20.90;64.90
29431;DHT22;16404;49.902;10.074;2023-09-19T06:48:07;21.00;64.60
29431;DHT22;16404;49.902;10.074;2023-09-19T06:50:53;21.00;64.10
29431;DHT22;16404;49.902;10.074;2023-09-19T06:53:39;21.10;63.80
29431;DHT22;16404;49.902;10.074;2023-09-19T06:56:24;21.20;63.50
29431;DHT22;16404;49.902;10.074;2023-09-19T06:59:10;21.20;63.30
29431;DHT22;16404;49.902;10.074;2023-09-19T07:01:56;21.20;63.00
29431;DHT22;16404;49.902;10.074;2023-09-19T07:04:43;21.10;62.90
29431;DHT22;16404;49.902;10.074;2023-09-19T07:07:27;21.10;63.30
29431;DHT22;16404;49.902;10.074;2023-09-19T07:10:13;21.10;63.50
29431;DHT22;16404;49.902;10.074;2023-09-19T07:13:02;21.20;63.30
29431;DHT22;16404;49.902;10.074;2023-09-19T07:15:47;21.30;63.20
29431;DHT22;16404;49.902;10.074;2023-09-19T07:18:34;21.50;62.20
29431;DHT22;16404;49.902;10.074;2023-09-19T07:21:18;21.70;61.60
29431;DHT22;16404;49.902;10.074;2023-09-19T07:24:03;21.80;60.90
29431;DHT22;16404;49.902;10.074;2023-09-19T07:26:47;21.90;60.00
29431;DHT22;16404;49.902;10.074;2023-09-19T07:29:33;21.90;59.80
29431;DHT22;16404;49.902;10.074;2023-09-19T07:32:17;22.00;59.10
29431;DHT22;16404;49.902;10.074;2023-09-19T07:35:02;22.00;58.60
29431;DHT22;16404;49.902;10.074;2023-09-19T07:37:49;22.00;58.50
29431;DHT22;16404;49.902;10.074;2023-09-19T07:40:33;22.10;58.50
29431;DHT22;16404;49.902;10.074;2023-09-19T07:43:17;22.10;58.90
29431;DHT22;16404;49.902;10.074;2023-09-19T07:46:06;22.20;58.20
29431;DHT22;16404;49.902;10.074;2023-09-19T07:48:51;22.40;57.40
29431;DHT22;16404;49.902;10.074;2023-09-19T07:51:36;22.50;56.90
29431;DHT22;16404;49.902;10.074;2023-09-19T07:54:20;22.60;56.80
29431;DHT22;16404;49.902;10.074;2023-09-19T07:57:05;22.80;56.40
29431;DHT22;16404;49.902;10.074;2023-09-19T07:59:50;22.90;56.00
29431;DHT22;16404;49.902;10.074;2023-09-19T08:02:39;23.00;55.00
29431;DHT22;16404;49.902;10.074;2023-09-19T08:05:23;23.00;54.70
29431;DHT22;16404;49.902;10.074;2023-09-19T08:08:08;23.00;54.40
29431;DHT22;16404;49.902;10.074;2023-09-19T08:10:56;23.00;54.50
29431;DHT22;16404;49.902;10.074;2023-09-19T08:13:42;23.00;54.00
29431;DHT22;16404;49.902;10.074;2023-09-19T08:16:29;23.10;53.50
29431;DHT22;16404;49.902;10.074;2023-09-19T08:19:14;23.20;53.30
29431;DHT22;16404;49.902;10.074;2023-09-19T08:21:59;23.20;52.90
29431;DHT22;16404;49.902;10.074;2023-09-19T08:24:43;23.30;52.90
29431;DHT22;16404;49.902;10.074;2023-09-19T08:27:28;23.30;52.80
29431;DHT22;16404;49.902;10.074;2023-09-19T08:30:13;23.30;52.30
29431;DHT22;16404;49.902;10.074;2023-09-19T08:32:58;23.40;51.90
29431;DHT22;16404;49.902;10.074;2023-09-19T08:35:43;23.30;51.90
29431;DHT22;16404;49.902;10.074;2023-09-19T08:38:30;23.30;52.00
29431;DHT22;16404;49.902;10.074;2023-09-19T08:41:17;23.30;52.10
29431;DHT22;16404;49.902;10.074;2023-09-19T08:44:01;23.30;51.90
29431;DHT22;16404;49.902;10.074;2023-09-19T08:46:46;23.30;51.80
29431;DHT22;16404;49.902;10.074;2023-09-19T08:52:43;23.40;50.70
29431;DHT22;16404;49.902;10.074;2023-09-19T08:55:28;23.40;50.30
29431;DHT22;16404;49.902;10.074;2023-09-19T08:58:15;23.50;50.30
29431;DHT22;16404;49.902;10.074;2023-09-19T09:01:05;23.50;50.10
29431;DHT22;16404;49.902;10.074;2023-09-19T09:03:52;23.50;50.00
29431;DHT22;16404;49.902;10.074;2023-09-19T09:06:37;23.30;50.10
29431;DHT22;16404;49.902;10.074;2023-09-19T09:09:23;23.20;50.50
29431;DHT22;16404;49.902;10.074;2023-09-19T09:12:12;23.30;50.90
29431;DHT22;16404;49.902;10.074;2023-09-19T09:14:57;23.40;50.60
29431;DHT22;16404;49.902;10.074;2023-09-19T09:17:42;23.50;50.70
29431;DHT22;16404;49.902;10.074;2023-09-19T09:20:27;23.80;49.70
29431;DHT22;16404;49.902;10.074;2023-09-19T09:23:11;23.90;48.60
29431;DHT22;16404;49.902;10.074;2023-09-19T09:25:59;23.90;48.10
29431;DHT22;16404;49.902;10.074;2023-09-19T09:28:46;23.90;47.60
29431;DHT22;16404;49.902;10.074;2023-09-19T09:31:36;23.90;48.00
29431;DHT22;16404;49.902;10.074;2023-09-19T09:34:22;24.00;46.60
29431;DHT22;16404;49.902;10.074;2023-09-19T09:37:17;24.00;46.10
29431;DHT22;16404;49.902;10.074;2023-09-19T09:40:05;24.10;44.60
29431;DHT22;16404;49.902;10.074;2023-09-19T09:42:59;24.00;44.30
29431;DHT22;16404;49.902;10.074;2023-09-19T09:45:44;23.90;44.60
29431;DHT22;16404;49.902;10.074;2023-09-19T09:48:33;24.10;45.30
29431;DHT22;16404;49.902;10.074;2023-09-19T09:51:29;24.10;44.20
29431;DHT22;16404;49.902;10.074;2023-09-19T09:54:16;24.10;43.90
29431;DHT22;16404;49.902;10.074;2023-09-19T09:57:02;24.10;43.70
29431;DHT22;16404;49.902;10.074;2023-09-19T09:59:59;24.20;42.50
29431;DHT22;16404;49.902;10.074;2023-09-19T10:02:56;24.20;41.80
29431;DHT22;16404;49.902;10.074;2023-09-19T10:05:44;24.20;41.10
29431;DHT22;16404;49.902;10.074;2023-09-19T10:08:29;24.10;41.40
29431;DHT22;16404;49.902;10.074;2023-09-19T10:11:16;24.10;42.10
29431;DHT22;16404;49.902;10.074;2023-09-19T10:14:01;24.10;42.20
29431;DHT22;16404;49.902;10.074;2023-09-19T10:16:53;24.30;41.70
29431;DHT22;16404;49.902;10.074;2023-09-19T10:19:57;24.30;40.80
29431;DHT22;16404;49.902;10.074;2023-09-19T10:22:50;24.30;40.30
29431;DHT22;16404;49.902;10.074;2023-09-19T10:25:43;24.20;39.90
29431;DHT22;16404;49.902;10.074;2023-09-19T10:28:28;24.10;40.10
29431;DHT22;16404;49.902;10.074;2023-09-19T10:31:19;24.10;39.90
29431;DHT22;16404;49.902;10.074;2023-09-19T10:34:04;24.10;39.50
29431;DHT22;16404;49.902;10.074;2023-09-19T10:36:51;24.00;40.00
29431;DHT22;16404;49.902;10.074;2023-09-19T10:39:37;24.00;39.80
29431;DHT22;16404;49.902;10.074;2023-09-19T10:42:25;24.00;39.20
29431;DHT22;16404;49.902;10.074;2023-09-19T10:45:13;23.90;39.10
29431;DHT22;16404;49.902;10.074;2023-09-19T10:48:00;23.90;38.90
29431;DHT22;16404;49.902;10.074;2023-09-19T10:53:46;23.80;39.00
29431;DHT22;16404;49.902;10.074;2023-09-19T10:56:36;23.80;38.60
29431;DHT22;16404;49.902;10.074;2023-09-19T10:59:25;23.90;39.10
29431;DHT22;16404;49.902;10.074;2023-09-19T11:02:17;23.90;39.30
29431;DHT22;16404;49.902;10.074;2023-09-19T11:05:12;23.90;38.70
29431;DHT22;16404;49.902;10.074;2023-09-19T11:07:57;23.80;39.00
29431;DHT22;16404;49.902;10.074;2023-09-19T11:10:51;23.80;39.40
29431;DHT22;16404;49.902;10.074;2023-09-19T11:13:35;23.70;39.20
29431;DHT22;16404;49.902;10.074;2023-09-19T11:16:21;23.70;39.40
29431;DHT22;16404;49.902;10.074;2023-09-19T11:19:08;23.70;40.10
29431;DHT22;16404;49.902;10.074;2023-09-19T11:21:55;23.70;39.70
29431;DHT22;16404;49.902;10.074;2023-09-19T11:24:39;23.70;39.40
29431;DHT22;16404;49.902;10.074;2023-09-19T11:27:24;23.70;39.70
29431;DHT22;16404;49.902;10.074;2023-09-19T11:30:26;23.80;40.20
29431;DHT22;16404;49.902;10.074;2023-09-19T11:33:31;23.70;40.40
29431;DHT22;16404;49.902;10.074;2023-09-19T11:36:17;23.70;41.20
29431;DHT22;16404;49.902;10.074;2023-09-19T11:39:25;23.90;41.00
29431;DHT22;16404;49.902;10.074;2023-09-19T11:48:32;23.90;39.50
29431;DHT22;16404;49.902;10.074;2023-09-19T11:51:22;23.90;39.60
29431;DHT22;16404;49.902;10.074;2023-09-19T11:54:14;23.90;39.80
29431;DHT22;16404;49.902;10.074;2023-09-19T11:57:02;23.80;39.50
29431;DHT22;16404;49.902;10.074;2023-09-19T11:59:46;23.80;39.70
29431;DHT22;16404;49.902;10.074;2023-09-19T12:02:39;23.80;39.30
29431;DHT22;16404;49.902;10.074;2023-09-19T12:05:31;23.80;39.70
29431;DHT22;16404;49.902;10.074;2023-09-19T12:08:18;23.80;40.10
29431;DHT22;16404;49.902;10.074;2023-09-19T12:11:05;23.80;39.70
29431;DHT22;16404;49.902;10.074;2023-09-19T12:13:52;23.80;39.80
29431;DHT22;16404;49.902;10.074;2023-09-19T12:16:37;23.80;39.90
29431;DHT22;16404;49.902;10.074;2023-09-19T12:19:23;23.80;40.00
29431;DHT22;16404;49.902;10.074;2023-09-19T12:22:07;23.80;40.60
29431;DHT22;16404;49.902;10.074;2023-09-19T12:24:53;23.90;40.00
29431;DHT22;16404;49.902;10.074;2023-09-19T12:27:42;23.80;39.60
29431;DHT22;16404;49.902;10.074;2023-09-19T12:30:28;23.80;39.70
29431;DHT22;16404;49.902;10.074;2023-09-19T12:33:18;23.80;39.50
29431;DHT22;16404;49.902;10.074;2023-09-19T12:36:21;23.70;39.20
29431;DHT22;16404;49.902;10.074;2023-09-19T12:39:23;23.70;39.40
29431;DHT22;16404;49.902;10.074;2023-09-19T12:42:10;23.70;39.10
29431;DHT22;16404;49.902;10.074;2023-09-19T12:44:54;23.80;39.10
29431;DHT22;16404;49.902;10.074;2023-09-19T12:47:40;23.80;39.40
29431;DHT22;16404;49.902;10.074;2023-09-19T12:50:27;23.80;39.70
29431;DHT22;16404;49.902;10.074;2023-09-19T12:53:26;23.80;40.10
29431;DHT22;16404;49.902;10.074;2023-09-19T12:56:15;23.80;39.50
29431;DHT22;16404;49.902;10.074;2023-09-19T12:58:59;23.90;39.20
29431;DHT22;16404;49.902;10.074;2023-09-19T13:02:03;23.90;39.70
29431;DHT22;16404;49.902;10.074;2023-09-19T13:04:53;23.90;40.40
29431;DHT22;16404;49.902;10.074;2023-09-19T13:07:44;24.00;40.40
29431;DHT22;16404;49.902;10.074;2023-09-19T13:10:33;24.10;40.20
29431;DHT22;16404;49.902;10.074;2023-09-19T13:13:23;24.10;40.00
29431;DHT22;16404;49.902;10.074;2023-09-19T13:16:12;24.10;40.20
29431;DHT22;16404;49.902;10.074;2023-09-19T13:18:58;24.10;40.40
29431;DHT22;16404;49.902;10.074;2023-09-19T13:21:43;24.20;39.90
29431;DHT22;16404;49.902;10.074;2023-09-19T13:24:33;24.20;39.70
29431;DHT22;16404;49.902;10.074;2023-09-19T13:27:19;24.30;40.30
29431;DHT22;16404;49.902;10.074;2023-09-19T13:30:04;24.30;40.50
29431;DHT22;16404;49.902;10.074;2023-09-19T13:32:49;24.40;40.70
29431;DHT22;16404;49.902;10.074;2023-09-19T13:35:33;24.40;40.50
29431;DHT22;16404;49.902;10.074;2023-09-19T13:38:18;24.40;39.70
29431;DHT22;16404;49.902;10.074;2023-09-19T13:41:06;24.40;39.20
29431;DHT22;16404;49.902;10.074;2023-09-19T13:43:50;24.40;39.70
29431;DHT22;16404;49.902;10.074;2023-09-19T13:46:35;24.40;39.80
29431;DHT22;16404;49.902;10.074;2023-09-19T13:49:19;24.40;39.70
29431;DHT22;16404;49.902;10.074;2023-09-19T13:52:05;24.40;39.70
29431;DHT22;16404;49.902;10.074;2023-09-19T13:54:50;24.50;39.70
29431;DHT22;16404;49.902;10.074;2023-09-19T13:57:34;24.50;39.10
29431;DHT22;16404;49.902;10.074;2023-09-19T14:00:19;24.50;38.50
29431;DHT22;16404;49.902;10.074;2023-09-19T14:03:03;24.50;38.20
29431;DHT22;16404;49.902;10.074;2023-09-19T14:05:48;24.50;38.30
29431;DHT22;16404;49.902;10.074;2023-09-19T14:08:35;24.50;38.50
29431;DHT22;16404;49.902;10.074;2023-09-19T14:11:20;24.40;38.30
29431;DHT22;16404;49.902;10.074;2023-09-19T14:14:04;24.40;38.50
29431;DHT22;16404;49.902;10.074;2023-09-19T14:16:49;24.40;38.30
29431;DHT22;16404;49.902;10.074;2023-09-19T14:19:33;24.30;38.60
29431;DHT22;16404;49.902;10.074;2023-09-19T14:22:20;24.30;38.80
29431;DHT22;16404;49.902;10.074;2023-09-19T14:25:05;24.30;38.70
29431;DHT22;16404;49.902;10.074;2023-09-19T14:27:51;24.20;38.90
29431;DHT22;16404;49.902;10.074;2023-09-19T14:30:35;24.20;39.60
29431;DHT22;16404;49.902;10.074;2023-09-19T14:33:21;24.30;39.40
29431;DHT22;16404;49.902;10.074;2023-09-19T14:36:07;24.20;39.30
29431;DHT22;16404;49.902;10.074;2023-09-19T14:38:53;24.20;39.00
29431;DHT22;16404;49.902;10.074;2023-09-19T14:41:43;24.20;39.40
29431;DHT22;16404;49.902;10.074;2023-09-19T14:44:28;24.20;39.50
29431;DHT22;16404;49.902;10.074;2023-09-19T14:47:12;24.20;39.70
29431;DHT22;16404;49.902;10.074;2023-09-19T14:49:57;24.20;39.70
29431;DHT22;16404;49.902;10.074;2023-09-19T14:52:42;24.20;39.90
29431;DHT22;16404;49.902;10.074;2023-09-19T14:55:26;24.30;40.00
29431;DHT22;16404;49.902;10.074;2023-09-19T14:58:13;24.20;40.10
29431;DHT22;16404;49.902;10.074;2023-09-19T15:01:08;24.10;40.10
29431;DHT22;16404;49.902;10.074;2023-09-19T15:03:56;24.10;40.10
29431;DHT22;16404;49.902;10.074;2023-09-19T15:06:41;24.10;40.40
29431;DHT22;16404;49.902;10.074;2023-09-19T15:09:25;24.10;40.60
29431;DHT22;16404;49.902;10.074;2023-09-19T15:12:10;24.20;40.40
29431;DHT22;16404;49.902;10.074;2023-09-19T15:14:58;24.20;40.60
29431;DHT22;16404;49.902;10.074;2023-09-19T15:17:42;24.20;40.80
29431;DHT22;16404;49.902;10.074;2023-09-19T15:20:27;24.30;40.90
29431;DHT22;16404;49.902;10.074;2023-09-19T15:23:12;24.30;40.60
29431;DHT22;16404;49.902;10.074;2023-09-19T15:25:57;24.30;40.70
29431;DHT22;16404;49.902;10.074;2023-09-19T15:28:41;24.30;40.80
29431;DHT22;16404;49.902;10.074;2023-09-19T15:31:26;24.20;40.40
29431;DHT22;16404;49.902;10.074;2023-09-19T15:34:10;24.10;40.70
29431;DHT22;16404;49.902;10.074;2023-09-19T15:36:58;24.10;41.00
29431;DHT22;16404;49.902;10.074;2023-09-19T15:39:42;24.20;41.10
29431;DHT22;16404;49.902;10.074;2023-09-19T15:42:29;24.20;41.30
29431;DHT22;16404;49.902;10.074;2023-09-19T15:45:13;24.20;40.90
29431;DHT22;16404;49.902;10.074;2023-09-19T15:47:59;24.10;40.90
29431;DHT22;16404;49.902;10.074;2023-09-19T15:50:44;24.10;40.90
29431;DHT22;16404;49.902;10.074;2023-09-19T15:53:39;24.10;41.00
29431;DHT22;16404;49.902;10.074;2023-09-19T15:56:25;24.00;41.20
29431;DHT22;16404;49.902;10.074;2023-09-19T15:59:11;24.00;41.40
29431;DHT22;16404;49.902;10.074;2023-09-19T16:02:04;24.00;41.50
29431;DHT22;16404;49.902;10.074;2023-09-19T16:04:49;23.90;41.40
29431;DHT22;16404;49.902;10.074;2023-09-19T16:07:33;23.90;41.50
29431;DHT22;16404;49.902;10.074;2023-09-19T16:10:18;23.80;41.70
29431;DHT22;16404;49.902;10.074;2023-09-19T16:13:03;23.80;41.80
29431;DHT22;16404;49.902;10.074;2023-09-19T16:15:47;23.70;41.80
29431;DHT22;16404;49.902;10.074;2023-09-19T16:18:32;23.70;41.90
29431;DHT22;16404;49.902;10.074;2023-09-19T16:21:18;23.70;42.10
29431;DHT22;16404;49.902;10.074;2023-09-19T16:24:03;23.70;42.40
29431;DHT22;16404;49.902;10.074;2023-09-19T16:26:48;23.70;42.50
29431;DHT22;16404;49.902;10.074;2023-09-19T16:29:33;23.60;43.10
29431;DHT22;16404;49.902;10.074;2023-09-19T16:32:18;23.60;42.80
29431;DHT22;16404;49.902;10.074;2023-09-19T16:35:04;23.60;42.90
29431;DHT22;16404;49.902;10.074;2023-09-19T16:37:48;23.70;43.10
29431;DHT22;16404;49.902;10.074;2023-09-19T16:40:33;23.60;43.60
29431;DHT22;16404;49.902;10.074;2023-09-19T16:43:18;23.60;43.10
29431;DHT22;16404;49.902;10.074;2023-09-19T16:46:05;23.60;43.30
29431;DHT22;16404;49.902;10.074;2023-09-19T16:48:52;23.70;43.40
29431;DHT22;16404;49.902;10.074;2023-09-19T16:51:37;23.70;43.40
29431;DHT22;16404;49.902;10.074;2023-09-19T16:54:22;23.60;43.50
29431;DHT22;16404;49.902;10.074;2023-09-19T16:57:07;23.60;43.60
29431;DHT22;16404;49.902;10.074;2023-09-19T16:59:52;23.50;43.80
29431;DHT22;16404;49.902;10.074;2023-09-19T17:02:36;23.50;44.00
29431;DHT22;16404;49.902;10.074;2023-09-19T17:05:21;23.50;44.10
29431;DHT22;16404;49.902;10.074;2023-09-19T17:08:07;23.50;44.00
29431;DHT22;16404;49.902;10.074;2023-09-19T17:10:51;23.40;44.10
29431;DHT22;16404;49.902;10.074;2023-09-19T17:13:44;23.30;44.20
29431;DHT22;16404;49.902;10.074;2023-09-19T17:16:30;23.30;44.30
29431;DHT22;16404;49.902;10.074;2023-09-19T17:19:15;23.20;44.40
29431;DHT22;16404;49.902;10.074;2023-09-19T17:21:59;23.20;44.70
29431;DHT22;16404;49.902;10.074;2023-09-19T17:24:44;23.20;44.80
29431;DHT22;16404;49.902;10.074;2023-09-19T17:27:30;23.10;44.80
29431;DHT22;16404;49.902;10.074;2023-09-19T17:30:15;23.00;45.10
29431;DHT22;16404;49.902;10.074;2023-09-19T17:32:59;23.10;45.00
29431;DHT22;16404;49.902;10.074;2023-09-19T17:35:44;23.00;45.20
29431;DHT22;16404;49.902;10.074;2023-09-19T17:38:28;22.80;45.40
29431;DHT22;16404;49.902;10.074;2023-09-19T17:41:13;22.70;45.60